Aledo, IL

11:25 AM CST on February 27, 2015 (GMT -0600)
KILALEDO2 | Change Station
CLOSE
Current Station
Personal Weather Station
Location: Aledo, IL
Elevation: 735 ft
Nearby Weather Stations

Elev 735 ft 41.20 °N, 90.76 °W | Updated 21 seconds ago

Clear
Clear
15.3 °F
Feels Like 10 °F
N
3.1
Wind Variable Wind from South
Gusts 4.3 mph

Today
High -- | Low -- °F
--% Chance of Precip.
Yesterday
High -- | Low -- °F
Precip. -- in
6:40 AM 5:51 PM
Waxing Gibbous, 70% visible
Pressure 30.71 in
Visibility 10.0 miles
Clouds Clear
Windchill 10 °F
Dew Point 2 °F
Humidity 54%
Rainfall 0.00 in
Snow Depth Not available.
UV 4 out of 12
Pollen .50 out of 12
Air Quality Not available.
Flu Activity Not available.
METAR KMLI 271652Z 28003KT 10SM CLR M13/M21 A3066 RMK AO2 SLP398 T11331206

More Conditions Fewer Conditions

Pressure 30.71 in
Visibility 10.0 miles
Clouds Clear
Windchill 10 °F
Dew Point 2 °F
Humidity 54%
Rainfall 0.00 in
Snow Depth Not available.
UV 4 out of 12
Pollen .50 out of 12
Air Quality Not available.
Flu Activity Not available.
METAR KMLI 271652Z 28003KT 10SM CLR M13/M21 A3066 RMK AO2 SLP398 T11331206

More Conditions Fewer Conditions

10-Day Weather Forecast

Almanac

Astronomy

Feb. 27, 2015 Rise Set
Actual Time
Civil Twilight
Nautical Twilight
Astronomical Twilight
Moon
Length of Visible Light
Length of Day
Tomorrow will be .
, % of the Moon is Illuminated

Today's Extremes

State Highs State Lows

Community

WunderPhotos

Upload Photos

1,800,748 photos uploaded!

WunderBlogs® & News

Nearby

Air Quality

  Air Quality AQ Index Pollutant
Not available.

Snow Depth

Station Depth Elevation

Earthquake Activity

City Distance Mag. Time & Date
Minimum magnitude displayed is 2.5.

Coastal Water Temperatures

Place Temperature

Nearby Weather Stations